sensor_id;sensor_type;location;lat;lon;timestamp;temperature;humidity
81140;SHT31;70624;51.978;5.656;2023-11-19T00:00:47;15.0;82.7
81140;SHT31;70624;51.978;5.656;2023-11-19T00:03:15;15.0;82.4
81140;SHT31;70624;51.978;5.656;2023-11-19T00:05:44;15.1;82.5
81140;SHT31;70624;51.978;5.656;2023-11-19T00:08:12;15.1;82.3
81140;SHT31;70624;51.978;5.656;2023-11-19T00:10:41;15.1;82.2
81140;SHT31;70624;51.978;5.656;2023-11-19T00:13:09;15.1;82.2
81140;SHT31;70624;51.978;5.656;2023-11-19T00:15:38;15.1;82.2
81140;SHT31;70624;51.978;5.656;2023-11-19T00:18:09;15.1;82.0
81140;SHT31;70624;51.978;5.656;2023-11-19T00:20:37;15.1;81.9
81140;SHT31;70624;51.978;5.656;2023-11-19T00:23:05;15.1;81.9
81140;SHT31;70624;51.978;5.656;2023-11-19T00:25:34;15.1;81.9
81140;SHT31;70624;51.978;5.656;2023-11-19T00:28:02;15.1;81.9
81140;SHT31;70624;51.978;5.656;2023-11-19T00:30:31;15.2;81.9
81140;SHT31;70624;51.978;5.656;2023-11-19T00:32:59;15.2;81.9
81140;SHT31;70624;51.978;5.656;2023-11-19T00:35:28;15.2;81.8
81140;SHT31;70624;51.978;5.656;2023-11-19T00:37:58;15.2;81.7
81140;SHT31;70624;51.978;5.656;2023-11-19T00:40:27;15.2;81.6
81140;SHT31;70624;51.978;5.656;2023-11-19T00:42:55;15.2;81.6
81140;SHT31;70624;51.978;5.656;2023-11-19T00:45:24;15.2;81.3
81140;SHT31;70624;51.978;5.656;2023-11-19T00:47:53;15.2;81.3
81140;SHT31;70624;51.978;5.656;2023-11-19T00:50:22;15.2;81.2
81140;SHT31;70624;51.978;5.656;2023-11-19T00:52:52;15.2;81.3
81140;SHT31;70624;51.978;5.656;2023-11-19T00:55:21;15.2;81.0
81140;SHT31;70624;51.978;5.656;2023-11-19T00:57:50;15.2;80.8
81140;SHT31;70624;51.978;5.656;2023-11-19T01:00:20;15.3;80.9
81140;SHT31;70624;51.978;5.656;2023-11-19T01:02:53;15.3;80.9
81140;SHT31;70624;51.978;5.656;2023-11-19T01:05:21;15.3;80.9
81140;SHT31;70624;51.978;5.656;2023-11-19T01:07:52;15.3;80.8
81140;SHT31;70624;51.978;5.656;2023-11-19T01:10:20;15.3;80.8
81140;SHT31;70624;51.978;5.656;2023-11-19T01:12:49;15.3;80.6
81140;SHT31;70624;51.978;5.656;2023-11-19T01:15:18;15.3;80.5
81140;SHT31;70624;51.978;5.656;2023-11-19T01:17:46;15.3;80.4
81140;SHT31;70624;51.978;5.656;2023-11-19T01:20:17;15.3;80.4
81140;SHT31;70624;51.978;5.656;2023-11-19T01:22:46;15.3;80.3
81140;SHT31;70624;51.978;5.656;2023-11-19T01:25:15;15.3;80.5
81140;SHT31;70624;51.978;5.656;2023-11-19T01:27:44;15.3;80.4
81140;SHT31;70624;51.978;5.656;2023-11-19T01:30:13;15.2;80.4
81140;SHT31;70624;51.978;5.656;2023-11-19T01:32:42;15.2;80.2
81140;SHT31;70624;51.978;5.656;2023-11-19T01:35:10;15.2;80.0
81140;SHT31;70624;51.978;5.656;2023-11-19T01:37:39;15.2;79.8
81140;SHT31;70624;51.978;5.656;2023-11-19T01:40:08;15.2;80.0
81140;SHT31;70624;51.978;5.656;2023-11-19T01:42:38;15.2;79.9
81140;SHT31;70624;51.978;5.656;2023-11-19T01:45:08;15.2;79.7
81140;SHT31;70624;51.978;5.656;2023-11-19T01:47:37;15.2;79.6
81140;SHT31;70624;51.978;5.656;2023-11-19T01:50:07;15.2;79.9
81140;SHT31;70624;51.978;5.656;2023-11-19T01:52:37;15.2;79.8
81140;SHT31;70624;51.978;5.656;2023-11-19T01:55:08;15.2;79.8
81140;SHT31;70624;51.978;5.656;2023-11-19T01:57:38;15.2;79.6
81140;SHT31;70624;51.978;5.656;2023-11-19T02:00:09;15.2;79.8
81140;SHT31;70624;51.978;5.656;2023-11-19T02:02:39;15.2;79.6
81140;SHT31;70624;51.978;5.656;2023-11-19T02:05:10;15.2;79.4
81140;SHT31;70624;51.978;5.656;2023-11-19T02:07:39;15.2;79.6
81140;SHT31;70624;51.978;5.656;2023-11-19T02:10:09;15.1;79.3
81140;SHT31;70624;51.978;5.656;2023-11-19T02:12:41;15.1;79.1
81140;SHT31;70624;51.978;5.656;2023-11-19T02:15:11;15.1;78.9
81140;SHT31;70624;51.978;5.656;2023-11-19T02:17:40;15.1;78.8
81140;SHT31;70624;51.978;5.656;2023-11-19T02:20:10;15.1;78.7
81140;SHT31;70624;51.978;5.656;2023-11-19T02:22:41;15.1;78.6
81140;SHT31;70624;51.978;5.656;2023-11-19T02:25:17;15.1;78.5
81140;SHT31;70624;51.978;5.656;2023-11-19T02:27:52;15.0;78.5
81140;SHT31;70624;51.978;5.656;2023-11-19T02:30:23;15.0;78.3
81140;SHT31;70624;51.978;5.656;2023-11-19T02:32:53;15.0;78.7
81140;SHT31;70624;51.978;5.656;2023-11-19T02:35:23;15.0;78.3
81140;SHT31;70624;51.978;5.656;2023-11-19T02:37:52;14.9;78.2
81140;SHT31;70624;51.978;5.656;2023-11-19T02:40:21;14.9;78.2
81140;SHT31;70624;51.978;5.656;2023-11-19T02:42:51;14.9;78.4
81140;SHT31;70624;51.978;5.656;2023-11-19T02:45:23;14.9;78.4
81140;SHT31;70624;51.978;5.656;2023-11-19T02:47:51;14.8;78.4
81140;SHT31;70624;51.978;5.656;2023-11-19T02:50:21;14.8;78.4
81140;SHT31;70624;51.978;5.656;2023-11-19T02:52:54;14.8;78.0
81140;SHT31;70624;51.978;5.656;2023-11-19T02:55:24;14.8;77.5
81140;SHT31;70624;51.978;5.656;2023-11-19T02:57:56;14.7;77.7
81140;SHT31;70624;51.978;5.656;2023-11-19T03:00:25;14.7;77.5
81140;SHT31;70624;51.978;5.656;2023-11-19T03:03:00;14.7;77.5
81140;SHT31;70624;51.978;5.656;2023-11-19T03:05:34;14.6;77.5
81140;SHT31;70624;51.978;5.656;2023-11-19T03:08:02;14.6;77.4
81140;SHT31;70624;51.978;5.656;2023-11-19T03:10:30;14.6;77.5
81140;SHT31;70624;51.978;5.656;2023-11-19T03:13:03;14.5;77.6
81140;SHT31;70624;51.978;5.656;2023-11-19T03:15:32;14.5;77.8
81140;SHT31;70624;51.978;5.656;2023-11-19T03:18:01;14.4;77.9
81140;SHT31;70624;51.978;5.656;2023-11-19T03:20:29;14.4;77.9
81140;SHT31;70624;51.978;5.656;2023-11-19T03:22:57;14.4;77.8
81140;SHT31;70624;51.978;5.656;2023-11-19T03:25:26;14.4;77.7
81140;SHT31;70624;51.978;5.656;2023-11-19T03:27:59;14.3;77.6
81140;SHT31;70624;51.978;5.656;2023-11-19T03:30:30;14.3;77.8
81140;SHT31;70624;51.978;5.656;2023-11-19T03:32:59;14.3;77.4
81140;SHT31;70624;51.978;5.656;2023-11-19T03:35:29;14.2;77.4
81140;SHT31;70624;51.978;5.656;2023-11-19T03:37:59;14.2;77.4
81140;SHT31;70624;51.978;5.656;2023-11-19T03:40:27;14.1;77.6
81140;SHT31;70624;51.978;5.656;2023-11-19T03:42:57;14.1;77.7
81140;SHT31;70624;51.978;5.656;2023-11-19T03:45:26;14.0;77.6
81140;SHT31;70624;51.978;5.656;2023-11-19T03:47:55;14.0;77.7
81140;SHT31;70624;51.978;5.656;2023-11-19T03:50:23;13.9;77.7
81140;SHT31;70624;51.978;5.656;2023-11-19T03:52:52;13.9;77.7
81140;SHT31;70624;51.978;5.656;2023-11-19T03:55:20;13.9;77.9
81140;SHT31;70624;51.978;5.656;2023-11-19T03:57:49;13.8;77.9
81140;SHT31;70624;51.978;5.656;2023-11-19T04:00:18;13.8;77.8
81140;SHT31;70624;51.978;5.656;2023-11-19T04:02:47;13.7;78.0
81140;SHT31;70624;51.978;5.656;2023-11-19T04:05:16;13.7;77.9
81140;SHT31;70624;51.978;5.656;2023-11-19T04:07:45;13.7;78.0
81140;SHT31;70624;51.978;5.656;2023-11-19T04:10:13;13.6;78.1
81140;SHT31;70624;51.978;5.656;2023-11-19T04:12:43;13.6;78.1
81140;SHT31;70624;51.978;5.656;2023-11-19T04:15:14;13.6;78.2
81140;SHT31;70624;51.978;5.656;2023-11-19T04:17:42;13.5;78.1
81140;SHT31;70624;51.978;5.656;2023-11-19T04:20:12;13.5;78.0
81140;SHT31;70624;51.978;5.656;2023-11-19T04:22:40;13.4;78.1
81140;SHT31;70624;51.978;5.656;2023-11-19T04:25:09;13.4;78.0
81140;SHT31;70624;51.978;5.656;2023-11-19T04:27:37;13.4;78.2
81140;SHT31;70624;51.978;5.656;2023-11-19T04:30:09;13.4;78.3
81140;SHT31;70624;51.978;5.656;2023-11-19T04:32:38;13.3;78.0
81140;SHT31;70624;51.978;5.656;2023-11-19T04:35:07;13.3;78.2
81140;SHT31;70624;51.978;5.656;2023-11-19T04:37:37;13.3;78.2
81140;SHT31;70624;51.978;5.656;2023-11-19T04:40:06;13.2;78.3
81140;SHT31;70624;51.978;5.656;2023-11-19T04:42:37;13.2;78.5
81140;SHT31;70624;51.978;5.656;2023-11-19T04:45:07;13.2;78.3
81140;SHT31;70624;51.978;5.656;2023-11-19T04:47:38;13.2;78.4
81140;SHT31;70624;51.978;5.656;2023-11-19T04:50:07;13.1;78.4
81140;SHT31;70624;51.978;5.656;2023-11-19T04:52:37;13.1;78.3
81140;SHT31;70624;51.978;5.656;2023-11-19T04:55:07;13.1;78.2
81140;SHT31;70624;51.978;5.656;2023-11-19T04:57:38;13.1;78.3
81140;SHT31;70624;51.978;5.656;2023-11-19T05:00:07;13.1;78.3
81140;SHT31;70624;51.978;5.656;2023-11-19T05:02:37;13.1;78.2
81140;SHT31;70624;51.978;5.656;2023-11-19T05:05:08;13.1;78.1
81140;SHT31;70624;51.978;5.656;2023-11-19T05:07:37;13.1;78.2
81140;SHT31;70624;51.978;5.656;2023-11-19T05:10:06;13.0;78.1
81140;SHT31;70624;51.978;5.656;2023-11-19T05:12:35;13.0;78.0
81140;SHT31;70624;51.978;5.656;2023-11-19T05:15:03;13.0;78.1
81140;SHT31;70624;51.978;5.656;2023-11-19T05:17:33;13.0;78.3
81140;SHT31;70624;51.978;5.656;2023-11-19T05:20:03;13.0;78.3
81140;SHT31;70624;51.978;5.656;2023-11-19T05:22:37;13.0;78.5
81140;SHT31;70624;51.978;5.656;2023-11-19T05:25:06;13.0;78.3
81140;SHT31;70624;51.978;5.656;2023-11-19T05:27:36;13.0;78.3
81140;SHT31;70624;51.978;5.656;2023-11-19T05:30:05;13.1;78.0
81140;SHT31;70624;51.978;5.656;2023-11-19T05:32:34;13.1;77.9
81140;SHT31;70624;51.978;5.656;2023-11-19T05:35:02;13.1;78.2
81140;SHT31;70624;51.978;5.656;2023-11-19T05:37:31;13.1;77.8
81140;SHT31;70624;51.978;5.656;2023-11-19T05:40:01;13.1;77.8
81140;SHT31;70624;51.978;5.656;2023-11-19T05:42:33;13.1;77.8
81140;SHT31;70624;51.978;5.656;2023-11-19T05:45:02;13.1;77.9
81140;SHT31;70624;51.978;5.656;2023-11-19T05:47:31;13.1;77.7
81140;SHT31;70624;51.978;5.656;2023-11-19T05:49:59;13.1;77.5
81140;SHT31;70624;51.978;5.656;2023-11-19T05:52:27;13.1;77.8
81140;SHT31;70624;51.978;5.656;2023-11-19T05:54:59;13.1;77.5
81140;SHT31;70624;51.978;5.656;2023-11-19T05:57:30;13.2;77.5
81140;SHT31;70624;51.978;5.656;2023-11-19T06:00:01;13.2;77.1
81140;SHT31;70624;51.978;5.656;2023-11-19T06:02:30;13.2;77.2
81140;SHT31;70624;51.978;5.656;2023-11-19T06:04:59;13.2;77.1
81140;SHT31;70624;51.978;5.656;2023-11-19T06:07:27;13.2;76.9
81140;SHT31;70624;51.978;5.656;2023-11-19T06:09:56;13.2;77.1
81140;SHT31;70624;51.978;5.656;2023-11-19T06:12:24;13.2;77.0
81140;SHT31;70624;51.978;5.656;2023-11-19T06:14:54;13.2;77.1
81140;SHT31;70624;51.978;5.656;2023-11-19T06:17:23;13.1;77.1
81140;SHT31;70624;51.978;5.656;2023-11-19T06:19:51;13.1;77.2
81140;SHT31;70624;51.978;5.656;2023-11-19T06:22:20;13.1;77.0
81140;SHT31;70624;51.978;5.656;2023-11-19T06:24:48;13.1;77.1
81140;SHT31;70624;51.978;5.656;2023-11-19T06:27:17;13.1;77.1
81140;SHT31;70624;51.978;5.656;2023-11-19T06:29:47;13.1;77.0
81140;SHT31;70624;51.978;5.656;2023-11-19T06:32:16;13.1;77.0
81140;SHT31;70624;51.978;5.656;2023-11-19T06:34:46;13.1;77.1
81140;SHT31;70624;51.978;5.656;2023-11-19T06:37:15;13.1;77.1
81140;SHT31;70624;51.978;5.656;2023-11-19T06:39:43;13.1;77.2
81140;SHT31;70624;51.978;5.656;2023-11-19T06:42:11;13.1;77.3
81140;SHT31;70624;51.978;5.656;2023-11-19T06:44:40;13.1;77.3
81140;SHT31;70624;51.978;5.656;2023-11-19T06:47:08;13.1;77.4
81140;SHT31;70624;51.978;5.656;2023-11-19T06:49:37;13.1;77.4
81140;SHT31;70624;51.978;5.656;2023-11-19T06:52:05;13.1;77.3
81140;SHT31;70624;51.978;5.656;2023-11-19T06:54:34;13.1;77.2
81140;SHT31;70624;51.978;5.656;2023-11-19T06:57:03;13.1;76.9
81140;SHT31;70624;51.978;5.656;2023-11-19T06:59:31;13.1;76.7
81140;SHT31;70624;51.978;5.656;2023-11-19T07:02:00;13.1;76.7
81140;SHT31;70624;51.978;5.656;2023-11-19T07:04:28;13.1;76.8
81140;SHT31;70624;51.978;5.656;2023-11-19T07:06:57;13.1;76.9
81140;SHT31;70624;51.978;5.656;2023-11-19T07:09:26;13.1;76.8
81140;SHT31;70624;51.978;5.656;2023-11-19T07:11:54;13.1;76.9
81140;SHT31;70624;51.978;5.656;2023-11-19T07:14:23;13.2;76.7
81140;SHT31;70624;51.978;5.656;2023-11-19T07:16:51;13.2;76.6
81140;SHT31;70624;51.978;5.656;2023-11-19T07:19:20;13.2;76.5
81140;SHT31;70624;51.978;5.656;2023-11-19T07:21:48;13.2;76.3
81140;SHT31;70624;51.978;5.656;2023-11-19T07:24:17;13.2;76.4
81140;SHT31;70624;51.978;5.656;2023-11-19T07:26:46;13.1;76.3
81140;SHT31;70624;51.978;5.656;2023-11-19T07:29:15;13.1;76.3
81140;SHT31;70624;51.978;5.656;2023-11-19T07:31:44;13.1;76.6
81140;SHT31;70624;51.978;5.656;2023-11-19T07:34:14;13.1;76.4
81140;SHT31;70624;51.978;5.656;2023-11-19T07:36:43;13.1;76.7
81140;SHT31;70624;51.978;5.656;2023-11-19T07:39:11;13.1;76.9
81140;SHT31;70624;51.978;5.656;2023-11-19T07:41:40;13.1;76.9
81140;SHT31;70624;51.978;5.656;2023-11-19T07:44:09;13.1;77.0
81140;SHT31;70624;51.978;5.656;2023-11-19T07:46:39;13.2;76.9
81140;SHT31;70624;51.978;5.656;2023-11-19T07:49:08;13.2;76.7
81140;SHT31;70624;51.978;5.656;2023-11-19T07:51:37;13.2;76.9
81140;SHT31;70624;51.978;5.656;2023-11-19T07:54:06;13.2;76.8
81140;SHT31;70624;51.978;5.656;2023-11-19T07:56:35;13.3;77.0
81140;SHT31;70624;51.978;5.656;2023-11-19T07:59:03;13.3;76.8
81140;SHT31;70624;51.978;5.656;2023-11-19T08:01:32;13.4;76.8
81140;SHT31;70624;51.978;5.656;2023-11-19T08:04:01;13.5;76.6
81140;SHT31;70624;51.978;5.656;2023-11-19T08:06:30;13.5;76.0
81140;SHT31;70624;51.978;5.656;2023-11-19T08:08:58;13.6;75.5
81140;SHT31;70624;51.978;5.656;2023-11-19T08:11:27;13.6;75.1
81140;SHT31;70624;51.978;5.656;2023-11-19T08:13:56;13.7;75.2
81140;SHT31;70624;51.978;5.656;2023-11-19T08:16:24;13.7;75.3
81140;SHT31;70624;51.978;5.656;2023-11-19T08:18:53;13.7;75.0
81140;SHT31;70624;51.978;5.656;2023-11-19T08:21:23;13.8;74.9
81140;SHT31;70624;51.978;5.656;2023-11-19T08:23:53;13.8;74.6
81140;SHT31;70624;51.978;5.656;2023-11-19T08:26:21;13.8;74.7
81140;SHT31;70624;51.978;5.656;2023-11-19T08:28:50;13.9;74.4
81140;SHT31;70624;51.978;5.656;2023-11-19T08:31:19;13.9;74.2
81140;SHT31;70624;51.978;5.656;2023-11-19T08:33:47;13.9;73.8
81140;SHT31;70624;51.978;5.656;2023-11-19T08:36:19;13.9;73.9
81140;SHT31;70624;51.978;5.656;2023-11-19T08:38:47;14.0;73.5
81140;SHT31;70624;51.978;5.656;2023-11-19T08:41:18;14.0;74.2
81140;SHT31;70624;51.978;5.656;2023-11-19T08:43:46;14.0;74.1
81140;SHT31;70624;51.978;5.656;2023-11-19T08:46:15;14.0;74.0
81140;SHT31;70624;51.978;5.656;2023-11-19T08:48:43;14.1;74.3
81140;SHT31;70624;51.978;5.656;2023-11-19T08:51:12;14.1;73.7
81140;SHT31;70624;51.978;5.656;2023-11-19T08:53:41;14.2;73.4
81140;SHT31;70624;51.978;5.656;2023-11-19T08:56:09;14.2;73.0
81140;SHT31;70624;51.978;5.656;2023-11-19T08:58:38;14.3;72.2
81140;SHT31;70624;51.978;5.656;2023-11-19T09:01:06;14.3;72.1
81140;SHT31;70624;51.978;5.656;2023-11-19T09:03:37;14.3;72.1
81140;SHT31;70624;51.978;5.656;2023-11-19T09:06:07;14.3;72.2
81140;SHT31;70624;51.978;5.656;2023-11-19T09:08:35;14.3;72.1
81140;SHT31;70624;51.978;5.656;2023-11-19T09:11:08;14.4;72.2
81140;SHT31;70624;51.978;5.656;2023-11-19T09:13:38;14.4;72.3
81140;SHT31;70624;51.978;5.656;2023-11-19T09:16:07;14.4;71.9
81140;SHT31;70624;51.978;5.656;2023-11-19T09:18:35;14.4;71.4
81140;SHT31;70624;51.978;5.656;2023-11-19T09:21:04;14.4;71.3
81140;SHT31;70624;51.978;5.656;2023-11-19T09:23:33;14.5;71.5
81140;SHT31;70624;51.978;5.656;2023-11-19T09:26:06;14.5;71.7
81140;SHT31;70624;51.978;5.656;2023-11-19T09:28:36;14.5;71.3
81140;SHT31;70624;51.978;5.656;2023-11-19T09:31:15;14.5;71.4
81140;SHT31;70624;51.978;5.656;2023-11-19T09:33:44;14.5;72.1
81140;SHT31;70624;51.978;5.656;2023-11-19T09:36:15;14.6;71.6
81140;SHT31;70624;51.978;5.656;2023-11-19T09:38:45;14.6;71.2
81140;SHT31;70624;51.978;5.656;2023-11-19T09:41:16;14.6;70.8
81140;SHT31;70624;51.978;5.656;2023-11-19T09:43:46;14.6;70.9
81140;SHT31;70624;51.978;5.656;2023-11-19T09:46:15;14.6;71.1
81140;SHT31;70624;51.978;5.656;2023-11-19T09:48:44;14.7;71.2
81140;SHT31;70624;51.978;5.656;2023-11-19T09:51:14;14.7;71.7
81140;SHT31;70624;51.978;5.656;2023-11-19T09:53:43;14.8;71.3
81140;SHT31;70624;51.978;5.656;2023-11-19T09:56:12;14.8;71.4
81140;SHT31;70624;51.978;5.656;2023-11-19T09:58:45;14.9;70.9
81140;SHT31;70624;51.978;5.656;2023-11-19T10:01:14;14.9;70.5
81140;SHT31;70624;51.978;5.656;2023-11-19T10:03:48;15.0;69.9
81140;SHT31;70624;51.978;5.656;2023-11-19T10:06:18;15.0;69.7
81140;SHT31;70624;51.978;5.656;2023-11-19T10:08:47;15.1;69.6
81140;SHT31;70624;51.978;5.656;2023-11-19T10:11:16;15.1;69.7
81140;SHT31;70624;51.978;5.656;2023-11-19T10:13:46;15.1;69.1
81140;SHT31;70624;51.978;5.656;2023-11-19T10:16:15;15.2;69.4
81140;SHT31;70624;51.978;5.656;2023-11-19T10:18:45;15.2;68.7
81140;SHT31;70624;51.978;5.656;2023-11-19T10:21:14;15.2;69.0
81140;SHT31;70624;51.978;5.656;2023-11-19T10:23:51;15.2;68.6
81140;SHT31;70624;51.978;5.656;2023-11-19T10:26:22;15.2;69.1
81140;SHT31;70624;51.978;5.656;2023-11-19T10:28:51;15.2;68.4
81140;SHT31;70624;51.978;5.656;2023-11-19T10:31:20;15.3;68.2
81140;SHT31;70624;51.978;5.656;2023-11-19T10:33:51;15.3;67.8
81140;SHT31;70624;51.978;5.656;2023-11-19T10:36:20;15.3;68.1
81140;SHT31;70624;51.978;5.656;2023-11-19T10:38:55;15.2;67.8
81140;SHT31;70624;51.978;5.656;2023-11-19T10:41:29;15.2;67.9
81140;SHT31;70624;51.978;5.656;2023-11-19T10:43:58;15.2;68.4
81140;SHT31;70624;51.978;5.656;2023-11-19T10:46:38;15.2;68.8
81140;SHT31;70624;51.978;5.656;2023-11-19T10:49:08;15.3;67.7
81140;SHT31;70624;51.978;5.656;2023-11-19T10:51:39;15.3;67.7
81140;SHT31;70624;51.978;5.656;2023-11-19T10:54:15;15.3;67.4
81140;SHT31;70624;51.978;5.656;2023-11-19T10:56:54;15.3;67.8
81140;SHT31;70624;51.978;5.656;2023-11-19T10:59:24;15.3;67.9
81140;SHT31;70624;51.978;5.656;2023-11-19T11:01:56;15.3;68.3
81140;SHT31;70624;51.978;5.656;2023-11-19T11:04:25;15.3;68.7
81140;SHT31;70624;51.978;5.656;2023-11-19T11:06:55;15.3;67.4
81140;SHT31;70624;51.978;5.656;2023-11-19T11:09:26;15.4;67.9
81140;SHT31;70624;51.978;5.656;2023-11-19T11:11:55;15.4;67.0
81140;SHT31;70624;51.978;5.656;2023-11-19T11:14:27;15.4;66.6
81140;SHT31;70624;51.978;5.656;2023-11-19T11:16:56;15.4;66.9
81140;SHT31;70624;51.978;5.656;2023-11-19T11:19:26;15.4;66.6
81140;SHT31;70624;51.978;5.656;2023-11-19T11:21:56;15.4;66.5
81140;SHT31;70624;51.978;5.656;2023-11-19T11:24:42;15.4;67.1
81140;SHT31;70624;51.978;5.656;2023-11-19T11:29:09;15.4;67.6
81140;SHT31;70624;51.978;5.656;2023-11-19T11:31:48;15.4;67.6
81140;SHT31;70624;51.978;5.656;2023-11-19T11:34:44;15.4;67.8
81140;SHT31;70624;51.978;5.656;2023-11-19T11:37:19;15.5;67.6
81140;SHT31;70624;51.978;5.656;2023-11-19T11:39:50;15.5;67.4
81140;SHT31;70624;51.978;5.656;2023-11-19T11:42:35;15.6;66.7
81140;SHT31;70624;51.978;5.656;2023-11-19T11:45:06;15.6;67.3
81140;SHT31;70624;51.978;5.656;2023-11-19T11:49:31;15.6;67.4
81140;SHT31;70624;51.978;5.656;2023-11-19T11:52:02;15.7;66.5
81140;SHT31;70624;51.978;5.656;2023-11-19T11:54:32;15.7;67.0
81140;SHT31;70624;51.978;5.656;2023-11-19T11:57:08;15.8;66.5
81140;SHT31;70624;51.978;5.656;2023-11-19T11:59:50;15.8;66.4
81140;SHT31;70624;51.978;5.656;2023-11-19T12:02:21;15.8;66.5
81140;SHT31;70624;51.978;5.656;2023-11-19T12:04:52;15.9;65.7
81140;SHT31;70624;51.978;5.656;2023-11-19T12:07:22;15.9;65.7
81140;SHT31;70624;51.978;5.656;2023-11-19T12:09:52;15.9;64.9
81140;SHT31;70624;51.978;5.656;2023-11-19T12:12:26;15.9;65.5
81140;SHT31;70624;51.978;5.656;2023-11-19T12:15:08;15.9;66.0
81140;SHT31;70624;51.978;5.656;2023-11-19T12:17:47;15.9;65.1
81140;SHT31;70624;51.978;5.656;2023-11-19T12:20:18;15.9;65.5
81140;SHT31;70624;51.978;5.656;2023-11-19T12:22:50;15.9;65.4
81140;SHT31;70624;51.978;5.656;2023-11-19T12:25:19;15.9;65.0
81140;SHT31;70624;51.978;5.656;2023-11-19T12:27:50;15.9;64.3
81140;SHT31;70624;51.978;5.656;2023-11-19T12:30:21;15.9;64.6
81140;SHT31;70624;51.978;5.656;2023-11-19T12:32:52;15.9;64.4
81140;SHT31;70624;51.978;5.656;2023-11-19T12:35:23;15.9;64.9
81140;SHT31;70624;51.978;5.656;2023-11-19T12:37:52;15.9;64.9
81140;SHT31;70624;51.978;5.656;2023-11-19T12:40:22;15.9;64.8
81140;SHT31;70624;51.978;5.656;2023-11-19T12:42:52;15.9;64.9
81140;SHT31;70624;51.978;5.656;2023-11-19T12:45:21;15.9;65.1
81140;SHT31;70624;51.978;5.656;2023-11-19T12:48:05;16.0;65.4
81140;SHT31;70624;51.978;5.656;2023-11-19T12:50:52;16.0;64.4
81140;SHT31;70624;51.978;5.656;2023-11-19T12:53:22;16.0;64.0
81140;SHT31;70624;51.978;5.656;2023-11-19T12:55:51;16.0;63.9
81140;SHT31;70624;51.978;5.656;2023-11-19T12:58:31;16.0;64.0
81140;SHT31;70624;51.978;5.656;2023-11-19T13:01:02;16.0;64.2
81140;SHT31;70624;51.978;5.656;2023-11-19T13:03:32;16.0;64.2
81140;SHT31;70624;51.978;5.656;2023-11-19T13:06:06;16.0;64.1
81140;SHT31;70624;51.978;5.656;2023-11-19T13:08:38;16.0;64.1
81140;SHT31;70624;51.978;5.656;2023-11-19T13:11:08;16.0;64.2
81140;SHT31;70624;51.978;5.656;2023-11-19T13:13:56;16.0;64.1
81140;SHT31;70624;51.978;5.656;2023-11-19T13:16:26;16.0;64.1
81140;SHT31;70624;51.978;5.656;2023-11-19T13:18:55;16.0;64.6
81140;SHT31;70624;51.978;5.656;2023-11-19T13:21:24;16.0;64.2
81140;SHT31;70624;51.978;5.656;2023-11-19T13:23:54;15.9;65.1
81140;SHT31;70624;51.978;5.656;2023-11-19T13:26:23;15.9;65.6
81140;SHT31;70624;51.978;5.656;2023-11-19T13:28:51;15.9;65.3
81140;SHT31;70624;51.978;5.656;2023-11-19T13:31:20;15.9;65.9
81140;SHT31;70624;51.978;5.656;2023-11-19T13:33:48;15.9;65.4
81140;SHT31;70624;51.978;5.656;2023-11-19T13:36:17;15.9;65.1
81140;SHT31;70624;51.978;5.656;2023-11-19T13:38:46;15.9;65.5
81140;SHT31;70624;51.978;5.656;2023-11-19T13:41:14;15.9;65.4
81140;SHT31;70624;51.978;5.656;2023-11-19T13:43:43;15.9;65.3
81140;SHT31;70624;51.978;5.656;2023-11-19T13:46:12;15.9;65.5
81140;SHT31;70624;51.978;5.656;2023-11-19T13:48:40;15.9;65.4
81140;SHT31;70624;51.978;5.656;2023-11-19T13:51:10;15.9;65.9
81140;SHT31;70624;51.978;5.656;2023-11-19T13:53:39;15.8;66.7
81140;SHT31;70624;51.978;5.656;2023-11-19T13:56:08;15.8;66.5
81140;SHT31;70624;51.978;5.656;2023-11-19T13:58:37;15.8;67.1
81140;SHT31;70624;51.978;5.656;2023-11-19T14:01:07;15.8;67.1
81140;SHT31;70624;51.978;5.656;2023-11-19T14:03:36;15.7;67.5
81140;SHT31;70624;51.978;5.656;2023-11-19T14:06:05;15.7;67.6
81140;SHT31;70624;51.978;5.656;2023-11-19T14:08:34;15.7;67.9
81140;SHT31;70624;51.978;5.656;2023-11-19T14:11:04;15.6;68.3
81140;SHT31;70624;51.978;5.656;2023-11-19T14:13:33;15.6;68.1
81140;SHT31;70624;51.978;5.656;2023-11-19T14:16:01;15.6;67.4
81140;SHT31;70624;51.978;5.656;2023-11-19T14:18:33;15.6;67.7
81140;SHT31;70624;51.978;5.656;2023-11-19T14:21:01;15.6;67.4
81140;SHT31;70624;51.978;5.656;2023-11-19T14:23:29;15.6;67.4
81140;SHT31;70624;51.978;5.656;2023-11-19T14:25:58;15.5;67.0
81140;SHT31;70624;51.978;5.656;2023-11-19T14:28:26;15.5;66.7
81140;SHT31;70624;51.978;5.656;2023-11-19T14:30:55;15.5;66.6
81140;SHT31;70624;51.978;5.656;2023-11-19T14:33:23;15.5;66.3
81140;SHT31;70624;51.978;5.656;2023-11-19T14:35:52;15.4;66.6
81140;SHT31;70624;51.978;5.656;2023-11-19T14:38:20;15.4;66.4
81140;SHT31;70624;51.978;5.656;2023-11-19T14:40:49;15.3;66.4
81140;SHT31;70624;51.978;5.656;2023-11-19T14:43:19;15.3;66.6
81140;SHT31;70624;51.978;5.656;2023-11-19T14:45:47;15.2;66.9
81140;SHT31;70624;51.978;5.656;2023-11-19T14:48:16;15.1;66.8
81140;SHT31;70624;51.978;5.656;2023-11-19T14:50:45;15.1;67.3
81140;SHT31;70624;51.978;5.656;2023-11-19T14:53:14;15.0;67.6
81140;SHT31;70624;51.978;5.656;2023-11-19T14:55:43;15.0;67.9
81140;SHT31;70624;51.978;5.656;2023-11-19T14:58:11;14.9;67.9
81140;SHT31;70624;51.978;5.656;2023-11-19T15:00:40;14.9;68.3
81140;SHT31;70624;51.978;5.656;2023-11-19T15:03:09;14.9;68.2
81140;SHT31;70624;51.978;5.656;2023-11-19T15:05:38;14.8;68.2
81140;SHT31;70624;51.978;5.656;2023-11-19T15:08:07;14.8;68.4
81140;SHT31;70624;51.978;5.656;2023-11-19T15:10:35;14.8;68.4
81140;SHT31;70624;51.978;5.656;2023-11-19T15:13:04;14.8;69.0
81140;SHT31;70624;51.978;5.656;2023-11-19T15:15:33;14.7;69.3
81140;SHT31;70624;51.978;5.656;2023-11-19T15:18:01;14.7;69.2
81140;SHT31;70624;51.978;5.656;2023-11-19T15:20:29;14.7;69.4
81140;SHT31;70624;51.978;5.656;2023-11-19T15:22:58;14.7;69.5
81140;SHT31;70624;51.978;5.656;2023-11-19T15:25:26;14.7;69.4
81140;SHT31;70624;51.978;5.656;2023-11-19T15:27:57;14.8;68.9
81140;SHT31;70624;51.978;5.656;2023-11-19T15:30:25;14.8;69.2
81140;SHT31;70624;51.978;5.656;2023-11-19T15:32:53;14.8;69.4
81140;SHT31;70624;51.978;5.656;2023-11-19T15:35:23;14.8;69.0
81140;SHT31;70624;51.978;5.656;2023-11-19T15:37:52;14.8;68.9
81140;SHT31;70624;51.978;5.656;2023-11-19T15:40:22;14.8;69.0
81140;SHT31;70624;51.978;5.656;2023-11-19T15:42:52;14.8;69.0
81140;SHT31;70624;51.978;5.656;2023-11-19T15:45:23;14.8;69.2
81140;SHT31;70624;51.978;5.656;2023-11-19T15:47:54;14.8;68.8
81140;SHT31;70624;51.978;5.656;2023-11-19T15:50:22;14.8;68.8
81140;SHT31;70624;51.978;5.656;2023-11-19T15:52:51;14.8;69.0
81140;SHT31;70624;51.978;5.656;2023-11-19T15:55:19;14.8;69.1
81140;SHT31;70624;51.978;5.656;2023-11-19T15:57:48;14.8;69.4
81140;SHT31;70624;51.978;5.656;2023-11-19T16:00:17;14.8;69.6
81140;SHT31;70624;51.978;5.656;2023-11-19T16:02:47;14.8;69.8
81140;SHT31;70624;51.978;5.656;2023-11-19T16:05:16;14.7;70.0
81140;SHT31;70624;51.978;5.656;2023-11-19T16:07:45;14.7;70.1
81140;SHT31;70624;51.978;5.656;2023-11-19T16:10:15;14.7;70.2
81140;SHT31;70624;51.978;5.656;2023-11-19T16:12:46;14.7;70.4
81140;SHT31;70624;51.978;5.656;2023-11-19T16:15:14;14.6;70.2
81140;SHT31;70624;51.978;5.656;2023-11-19T16:17:43;14.6;70.2
81140;SHT31;70624;51.978;5.656;2023-11-19T16:20:14;14.6;70.2
81140;SHT31;70624;51.978;5.656;2023-11-19T16:22:43;14.6;70.3